sensor_id;sensor_type;location;lat;lon;timestamp;temperature;humidity
48007;DHT22;33771;48.180;11.400;2022-11-20T00:01:11;5.20;99.90
48007;DHT22;33771;48.180;11.400;2022-11-20T00:03:37;5.30;99.90
48007;DHT22;33771;48.180;11.400;2022-11-20T00:06:05;5.30;99.90
48007;DHT22;33771;48.180;11.400;2022-11-20T00:08:30;5.30;99.90
48007;DHT22;33771;48.180;11.400;2022-11-20T00:10:56;5.50;99.90
48007;DHT22;33771;48.180;11.400;2022-11-20T00:13:22;5.40;99.90
48007;DHT22;33771;48.180;11.400;2022-11-20T00:15:47;5.40;99.90
48007;DHT22;33771;48.180;11.400;2022-11-20T00:18:13;5.40;99.90
48007;DHT22;33771;48.180;11.400;2022-11-20T00:20:39;5.40;99.90
48007;DHT22;33771;48.180;11.400;2022-11-20T00:23:04;5.30;99.90
48007;DHT22;33771;48.180;11.400;2022-11-20T00:25:34;5.40;99.90
48007;DHT22;33771;48.180;11.400;2022-11-20T00:27:59;5.40;99.90
48007;DHT22;33771;48.180;11.400;2022-11-20T00:30:25;5.40;99.90
48007;DHT22;33771;48.180;11.400;2022-11-20T00:32:51;5.30;99.90
48007;DHT22;33771;48.180;11.400;2022-11-20T00:35:16;5.30;99.90
48007;DHT22;33771;48.180;11.400;2022-11-20T00:37:42;5.30;99.90
48007;DHT22;33771;48.180;11.400;2022-11-20T00:40:07;5.30;99.90
48007;DHT22;33771;48.180;11.400;2022-11-20T00:42:33;5.30;99.90
48007;DHT22;33771;48.180;11.400;2022-11-20T00:44:59;5.30;99.90
48007;DHT22;33771;48.180;11.400;2022-11-20T00:47:24;5.30;99.90
48007;DHT22;33771;48.180;11.400;2022-11-20T00:49:50;5.30;99.90
48007;DHT22;33771;48.180;11.400;2022-11-20T00:52:15;5.30;99.90
48007;DHT22;33771;48.180;11.400;2022-11-20T00:54:41;5.30;99.90
48007;DHT22;33771;48.180;11.400;2022-11-20T00:57:07;5.30;99.90
48007;DHT22;33771;48.180;11.400;2022-11-20T00:59:32;5.30;99.90
48007;DHT22;33771;48.180;11.400;2022-11-20T01:01:58;5.30;99.90
48007;DHT22;33771;48.180;11.400;2022-11-20T01:04:23;5.30;99.90
48007;DHT22;33771;48.180;11.400;2022-11-20T01:06:49;5.30;99.90
48007;DHT22;33771;48.180;11.400;2022-11-20T01:09:14;5.30;99.90
48007;DHT22;33771;48.180;11.400;2022-11-20T01:11:42;5.30;99.90
48007;DHT22;33771;48.180;11.400;2022-11-20T01:14:17;5.20;99.90
48007;DHT22;33771;48.180;11.400;2022-11-20T01:16:48;5.20;99.90
48007;DHT22;33771;48.180;11.400;2022-11-20T01:19:25;5.30;99.90
48007;DHT22;33771;48.180;11.400;2022-11-20T01:21:52;5.20;99.90
48007;DHT22;33771;48.180;11.400;2022-11-20T01:24:20;5.20;99.90
48007;DHT22;33771;48.180;11.400;2022-11-20T01:26:48;5.30;99.90
48007;DHT22;33771;48.180;11.400;2022-11-20T01:29:17;5.20;99.90
48007;DHT22;33771;48.180;11.400;2022-11-20T01:31:43;5.30;99.90
48007;DHT22;33771;48.180;11.400;2022-11-20T01:34:19;5.30;99.90
48007;DHT22;33771;48.180;11.400;2022-11-20T01:36:48;5.30;99.90
48007;DHT22;33771;48.180;11.400;2022-11-20T01:39:16;5.30;99.90
48007;DHT22;33771;48.180;11.400;2022-11-20T01:41:43;5.30;99.90
48007;DHT22;33771;48.180;11.400;2022-11-20T01:44:50;5.30;99.90
48007;DHT22;33771;48.180;11.400;2022-11-20T01:47:20;5.30;99.90
48007;DHT22;33771;48.180;11.400;2022-11-20T01:49:52;5.30;99.90
48007;DHT22;33771;48.180;11.400;2022-11-20T01:52:23;5.30;99.90
48007;DHT22;33771;48.180;11.400;2022-11-20T01:54:56;5.30;99.90
48007;DHT22;33771;48.180;11.400;2022-11-20T01:57:24;5.30;99.90
48007;DHT22;33771;48.180;11.400;2022-11-20T01:59:57;5.20;99.90
48007;DHT22;33771;48.180;11.400;2022-11-20T02:02:25;5.20;99.90
48007;DHT22;33771;48.180;11.400;2022-11-20T02:04:51;5.20;99.90
48007;DHT22;33771;48.180;11.400;2022-11-20T02:07:20;5.20;99.90
48007;DHT22;33771;48.180;11.400;2022-11-20T02:09:46;5.20;99.90
48007;DHT22;33771;48.180;11.400;2022-11-20T02:12:12;5.20;99.90
48007;DHT22;33771;48.180;11.400;2022-11-20T02:14:58;5.20;99.90
48007;DHT22;33771;48.180;11.400;2022-11-20T02:17:24;5.20;99.90
48007;DHT22;33771;48.180;11.400;2022-11-20T02:19:51;5.20;99.90
48007;DHT22;33771;48.180;11.400;2022-11-20T02:22:26;5.20;99.90
48007;DHT22;33771;48.180;11.400;2022-11-20T02:24:54;5.20;99.90
48007;DHT22;33771;48.180;11.400;2022-11-20T02:27:20;5.30;99.90
48007;DHT22;33771;48.180;11.400;2022-11-20T02:29:56;5.30;99.90
48007;DHT22;33771;48.180;11.400;2022-11-20T02:32:27;5.30;99.90
48007;DHT22;33771;48.180;11.400;2022-11-20T02:34:53;5.30;99.90
48007;DHT22;33771;48.180;11.400;2022-11-20T02:37:19;5.30;99.90
48007;DHT22;33771;48.180;11.400;2022-11-20T02:39:46;5.30;99.90
48007;DHT22;33771;48.180;11.400;2022-11-20T02:42:12;5.30;99.90
48007;DHT22;33771;48.180;11.400;2022-11-20T02:44:38;5.40;99.90
48007;DHT22;33771;48.180;11.400;2022-11-20T02:47:04;5.40;99.90
48007;DHT22;33771;48.180;11.400;2022-11-20T02:49:29;5.40;99.90
48007;DHT22;33771;48.180;11.400;2022-11-20T02:51:55;5.40;99.90
48007;DHT22;33771;48.180;11.400;2022-11-20T02:54:20;5.40;99.90
48007;DHT22;33771;48.180;11.400;2022-11-20T02:56:46;5.40;99.90
48007;DHT22;33771;48.180;11.400;2022-11-20T02:59:12;5.40;99.90
48007;DHT22;33771;48.180;11.400;2022-11-20T03:01:37;5.40;99.90
48007;DHT22;33771;48.180;11.400;2022-11-20T03:04:03;5.40;99.90
48007;DHT22;33771;48.180;11.400;2022-11-20T03:06:28;5.40;99.90
48007;DHT22;33771;48.180;11.400;2022-11-20T03:08:54;5.30;99.90
48007;DHT22;33771;48.180;11.400;2022-11-20T03:11:20;5.40;99.90
48007;DHT22;33771;48.180;11.400;2022-11-20T03:13:45;5.40;99.90
48007;DHT22;33771;48.180;11.400;2022-11-20T03:16:16;5.40;99.90
48007;DHT22;33771;48.180;11.400;2022-11-20T03:18:42;5.40;99.90
48007;DHT22;33771;48.180;11.400;2022-11-20T03:21:09;5.40;99.90
48007;DHT22;33771;48.180;11.400;2022-11-20T03:23:36;5.40;99.90
48007;DHT22;33771;48.180;11.400;2022-11-20T03:26:20;5.40;99.90
48007;DHT22;33771;48.180;11.400;2022-11-20T03:28:53;5.40;99.90
48007;DHT22;33771;48.180;11.400;2022-11-20T03:31:22;5.30;99.90
48007;DHT22;33771;48.180;11.400;2022-11-20T03:33:48;5.30;99.90
48007;DHT22;33771;48.180;11.400;2022-11-20T03:36:16;5.30;99.90
48007;DHT22;33771;48.180;11.400;2022-11-20T03:38:42;5.30;99.90
48007;DHT22;33771;48.180;11.400;2022-11-20T03:41:10;5.30;99.90
48007;DHT22;33771;48.180;11.400;2022-11-20T03:43:36;5.20;99.90
48007;DHT22;33771;48.180;11.400;2022-11-20T03:46:03;5.20;99.90
48007;DHT22;33771;48.180;11.400;2022-11-20T03:48:29;5.20;99.90
48007;DHT22;33771;48.180;11.400;2022-11-20T03:51:11;5.20;99.90
48007;DHT22;33771;48.180;11.400;2022-11-20T03:53:38;5.20;99.90
48007;DHT22;33771;48.180;11.400;2022-11-20T03:56:04;5.20;99.90
48007;DHT22;33771;48.180;11.400;2022-11-20T03:58:30;5.30;99.90
48007;DHT22;33771;48.180;11.400;2022-11-20T04:00:56;5.30;99.90
48007;DHT22;33771;48.180;11.400;2022-11-20T04:03:21;5.20;99.90
48007;DHT22;33771;48.180;11.400;2022-11-20T04:05:47;5.20;99.90
48007;DHT22;33771;48.180;11.400;2022-11-20T04:08:13;5.20;99.90
48007;DHT22;33771;48.180;11.400;2022-11-20T04:10:38;5.20;99.90
48007;DHT22;33771;48.180;11.400;2022-11-20T04:13:04;5.30;99.90
48007;DHT22;33771;48.180;11.400;2022-11-20T04:15:29;5.30;99.90
48007;DHT22;33771;48.180;11.400;2022-11-20T04:17:55;5.30;99.90
48007;DHT22;33771;48.180;11.400;2022-11-20T04:20:21;5.20;99.90
48007;DHT22;33771;48.180;11.400;2022-11-20T04:22:46;5.20;99.90
48007;DHT22;33771;48.180;11.400;2022-11-20T04:25:12;5.20;99.90
48007;DHT22;33771;48.180;11.400;2022-11-20T04:27:37;5.20;99.90
48007;DHT22;33771;48.180;11.400;2022-11-20T04:30:03;5.20;99.90
48007;DHT22;33771;48.180;11.400;2022-11-20T04:32:29;5.20;99.90
48007;DHT22;33771;48.180;11.400;2022-11-20T04:34:54;5.20;99.90
48007;DHT22;33771;48.180;11.400;2022-11-20T04:37:20;5.10;99.90
48007;DHT22;33771;48.180;11.400;2022-11-20T04:39:46;5.10;99.90
48007;DHT22;33771;48.180;11.400;2022-11-20T04:42:11;5.10;99.90
48007;DHT22;33771;48.180;11.400;2022-11-20T04:44:55;5.10;99.90
48007;DHT22;33771;48.180;11.400;2022-11-20T04:47:21;5.10;99.90
48007;DHT22;33771;48.180;11.400;2022-11-20T04:49:47;5.10;99.90
48007;DHT22;33771;48.180;11.400;2022-11-20T04:52:13;5.10;99.90
48007;DHT22;33771;48.180;11.400;2022-11-20T04:54:39;5.10;99.90
48007;DHT22;33771;48.180;11.400;2022-11-20T04:57:04;5.10;99.90
48007;DHT22;33771;48.180;11.400;2022-11-20T04:59:30;5.10;99.90
48007;DHT22;33771;48.180;11.400;2022-11-20T05:01:55;5.10;99.90
48007;DHT22;33771;48.180;11.400;2022-11-20T05:04:21;5.10;99.90
48007;DHT22;33771;48.180;11.400;2022-11-20T05:06:47;5.10;99.90
48007;DHT22;33771;48.180;11.400;2022-11-20T05:09:12;5.10;99.90
48007;DHT22;33771;48.180;11.400;2022-11-20T05:11:38;5.10;99.90
48007;DHT22;33771;48.180;11.400;2022-11-20T05:14:04;5.10;99.90
48007;DHT22;33771;48.180;11.400;2022-11-20T05:16:29;5.10;99.90
48007;DHT22;33771;48.180;11.400;2022-11-20T05:18:55;5.10;99.90
48007;DHT22;33771;48.180;11.400;2022-11-20T05:21:21;5.10;99.90
48007;DHT22;33771;48.180;11.400;2022-11-20T05:23:47;5.10;99.90
48007;DHT22;33771;48.180;11.400;2022-11-20T05:26:20;5.10;99.90
48007;DHT22;33771;48.180;11.400;2022-11-20T05:28:47;5.10;99.90
48007;DHT22;33771;48.180;11.400;2022-11-20T05:31:19;5.10;99.90
48007;DHT22;33771;48.180;11.400;2022-11-20T05:33:45;5.10;99.90
48007;DHT22;33771;48.180;11.400;2022-11-20T05:36:12;5.10;99.90
48007;DHT22;33771;48.180;11.400;2022-11-20T05:38:39;5.10;99.90
48007;DHT22;33771;48.180;11.400;2022-11-20T05:41:15;5.00;99.90
48007;DHT22;33771;48.180;11.400;2022-11-20T05:43:42;5.10;99.90
48007;DHT22;33771;48.180;11.400;2022-11-20T05:46:10;5.00;99.90
48007;DHT22;33771;48.180;11.400;2022-11-20T05:48:37;5.10;99.90
48007;DHT22;33771;48.180;11.400;2022-11-20T05:51:05;5.10;99.90
48007;DHT22;33771;48.180;11.400;2022-11-20T05:53:33;5.00;99.90
48007;DHT22;33771;48.180;11.400;2022-11-20T05:55:59;5.00;99.90
48007;DHT22;33771;48.180;11.400;2022-11-20T05:58:25;5.00;99.90
48007;DHT22;33771;48.180;11.400;2022-11-20T06:00:50;5.00;99.90
48007;DHT22;33771;48.180;11.400;2022-11-20T06:03:16;4.90;99.90
48007;DHT22;33771;48.180;11.400;2022-11-20T06:05:42;4.90;99.90
48007;DHT22;33771;48.180;11.400;2022-11-20T06:08:07;4.90;99.90
48007;DHT22;33771;48.180;11.400;2022-11-20T06:10:33;4.80;99.90
48007;DHT22;33771;48.180;11.400;2022-11-20T06:12:58;4.90;99.90
48007;DHT22;33771;48.180;11.400;2022-11-20T06:15:24;4.80;99.90
48007;DHT22;33771;48.180;11.400;2022-11-20T06:17:53;4.80;99.90
48007;DHT22;33771;48.180;11.400;2022-11-20T06:20:20;4.80;99.90
48007;DHT22;33771;48.180;11.400;2022-11-20T06:22:45;4.70;99.90
48007;DHT22;33771;48.180;11.400;2022-11-20T06:25:11;4.70;99.90
48007;DHT22;33771;48.180;11.400;2022-11-20T06:27:37;4.60;99.90
48007;DHT22;33771;48.180;11.400;2022-11-20T06:30:03;4.50;99.90
48007;DHT22;33771;48.180;11.400;2022-11-20T06:32:29;4.50;99.90
48007;DHT22;33771;48.180;11.400;2022-11-20T06:34:54;4.50;99.90
48007;DHT22;33771;48.180;11.400;2022-11-20T06:37:20;4.50;99.90
48007;DHT22;33771;48.180;11.400;2022-11-20T06:39:45;4.50;99.90
48007;DHT22;33771;48.180;11.400;2022-11-20T06:42:11;4.50;99.90
48007;DHT22;33771;48.180;11.400;2022-11-20T06:44:37;4.50;99.90
48007;DHT22;33771;48.180;11.400;2022-11-20T06:47:02;4.50;99.90
48007;DHT22;33771;48.180;11.400;2022-11-20T06:49:28;4.50;99.90
48007;DHT22;33771;48.180;11.400;2022-11-20T06:51:53;4.60;99.90
48007;DHT22;33771;48.180;11.400;2022-11-20T06:54:19;4.60;99.90
48007;DHT22;33771;48.180;11.400;2022-11-20T06:56:48;4.60;99.90
48007;DHT22;33771;48.180;11.400;2022-11-20T06:59:13;4.70;99.90
48007;DHT22;33771;48.180;11.400;2022-11-20T07:01:39;4.70;99.90
48007;DHT22;33771;48.180;11.400;2022-11-20T07:04:05;4.70;99.90
48007;DHT22;33771;48.180;11.400;2022-11-20T07:06:30;4.70;99.90
48007;DHT22;33771;48.180;11.400;2022-11-20T07:08:56;4.80;99.90
48007;DHT22;33771;48.180;11.400;2022-11-20T07:11:22;4.80;99.90
48007;DHT22;33771;48.180;11.400;2022-11-20T07:13:47;4.90;99.90
48007;DHT22;33771;48.180;11.400;2022-11-20T07:16:13;4.90;99.90
48007;DHT22;33771;48.180;11.400;2022-11-20T07:18:38;4.90;99.90
48007;DHT22;33771;48.180;11.400;2022-11-20T07:21:06;4.90;99.90
48007;DHT22;33771;48.180;11.400;2022-11-20T07:23:32;4.90;99.90
48007;DHT22;33771;48.180;11.400;2022-11-20T07:26:02;5.00;99.90
48007;DHT22;33771;48.180;11.400;2022-11-20T07:28:27;5.00;99.90
48007;DHT22;33771;48.180;11.400;2022-11-20T07:30:53;5.00;99.90
48007;DHT22;33771;48.180;11.400;2022-11-20T07:33:19;5.00;99.90
48007;DHT22;33771;48.180;11.400;2022-11-20T07:35:45;5.00;99.90
48007;DHT22;33771;48.180;11.400;2022-11-20T07:38:11;5.10;99.90
48007;DHT22;33771;48.180;11.400;2022-11-20T07:40:37;5.10;99.90
48007;DHT22;33771;48.180;11.400;2022-11-20T07:43:02;5.10;99.90
48007;DHT22;33771;48.180;11.400;2022-11-20T07:45:28;5.20;99.90
48007;DHT22;33771;48.180;11.400;2022-11-20T07:47:53;5.20;99.90
48007;DHT22;33771;48.180;11.400;2022-11-20T07:50:20;5.20;99.90
48007;DHT22;33771;48.180;11.400;2022-11-20T07:52:45;5.30;99.90
48007;DHT22;33771;48.180;11.400;2022-11-20T07:55:11;5.30;99.90
48007;DHT22;33771;48.180;11.400;2022-11-20T07:57:37;5.40;99.90
48007;DHT22;33771;48.180;11.400;2022-11-20T08:00:04;5.40;99.90
48007;DHT22;33771;48.180;11.400;2022-11-20T08:02:30;5.40;99.90
48007;DHT22;33771;48.180;11.400;2022-11-20T08:04:56;5.40;99.90
48007;DHT22;33771;48.180;11.400;2022-11-20T08:07:22;5.40;99.90
48007;DHT22;33771;48.180;11.400;2022-11-20T08:09:49;5.50;99.90
48007;DHT22;33771;48.180;11.400;2022-11-20T08:12:18;5.50;99.90
48007;DHT22;33771;48.180;11.400;2022-11-20T08:15:03;5.50;99.90
48007;DHT22;33771;48.180;11.400;2022-11-20T08:17:29;5.60;99.90
48007;DHT22;33771;48.180;11.400;2022-11-20T08:19:55;5.70;99.90
48007;DHT22;33771;48.180;11.400;2022-11-20T08:22:20;5.70;99.90
48007;DHT22;33771;48.180;11.400;2022-11-20T08:24:46;5.80;99.90
48007;DHT22;33771;48.180;11.400;2022-11-20T08:27:11;5.80;99.90
48007;DHT22;33771;48.180;11.400;2022-11-20T08:29:37;5.90;99.90
48007;DHT22;33771;48.180;11.400;2022-11-20T08:32:03;5.90;99.90
48007;DHT22;33771;48.180;11.400;2022-11-20T08:34:31;5.90;99.90
48007;DHT22;33771;48.180;11.400;2022-11-20T08:36:57;6.00;99.90
48007;DHT22;33771;48.180;11.400;2022-11-20T08:39:22;6.00;99.90
48007;DHT22;33771;48.180;11.400;2022-11-20T08:41:48;6.00;99.90
48007;DHT22;33771;48.180;11.400;2022-11-20T08:44:13;6.00;99.90
48007;DHT22;33771;48.180;11.400;2022-11-20T08:46:42;6.00;99.90
48007;DHT22;33771;48.180;11.400;2022-11-20T08:49:11;6.10;99.90
48007;DHT22;33771;48.180;11.400;2022-11-20T08:51:37;6.20;99.90
48007;DHT22;33771;48.180;11.400;2022-11-20T08:54:04;6.30;99.90
48007;DHT22;33771;48.180;11.400;2022-11-20T08:56:30;6.30;99.90
48007;DHT22;33771;48.180;11.400;2022-11-20T08:58:56;6.30;99.90
48007;DHT22;33771;48.180;11.400;2022-11-20T09:01:22;6.30;99.90
48007;DHT22;33771;48.180;11.400;2022-11-20T09:03:49;6.30;99.90
48007;DHT22;33771;48.180;11.400;2022-11-20T09:06:15;6.30;99.90
48007;DHT22;33771;48.180;11.400;2022-11-20T09:08:41;6.30;99.90
48007;DHT22;33771;48.180;11.400;2022-11-20T09:11:07;6.40;99.90
48007;DHT22;33771;48.180;11.400;2022-11-20T09:13:34;6.40;99.90
48007;DHT22;33771;48.180;11.400;2022-11-20T09:16:05;6.40;99.90
48007;DHT22;33771;48.180;11.400;2022-11-20T09:18:35;6.40;99.90
48007;DHT22;33771;48.180;11.400;2022-11-20T09:21:06;6.50;99.90
48007;DHT22;33771;48.180;11.400;2022-11-20T09:23:34;6.50;99.90
48007;DHT22;33771;48.180;11.400;2022-11-20T09:26:04;6.50;99.90
48007;DHT22;33771;48.180;11.400;2022-11-20T09:28:31;6.60;99.90
48007;DHT22;33771;48.180;11.400;2022-11-20T09:30:57;6.60;99.90
48007;DHT22;33771;48.180;11.400;2022-11-20T09:33:22;6.60;99.90
48007;DHT22;33771;48.180;11.400;2022-11-20T09:35:48;6.70;99.90
48007;DHT22;33771;48.180;11.400;2022-11-20T09:38:13;6.70;99.90
48007;DHT22;33771;48.180;11.400;2022-11-20T09:40:58;6.80;99.90
48007;DHT22;33771;48.180;11.400;2022-11-20T09:49:23;7.10;99.90
48007;DHT22;33771;48.180;11.400;2022-11-20T09:54:56;7.30;99.90
48007;DHT22;33771;48.180;11.400;2022-11-20T09:57:33;7.50;99.90
48007;DHT22;33771;48.180;11.400;2022-11-20T10:00:00;7.60;99.90
48007;DHT22;33771;48.180;11.400;2022-11-20T10:05:25;7.90;99.90
48007;DHT22;33771;48.180;11.400;2022-11-20T10:08:28;8.00;99.90
48007;DHT22;33771;48.180;11.400;2022-11-20T10:11:20;8.10;99.90
48007;DHT22;33771;48.180;11.400;2022-11-20T10:14:01;8.10;99.90
48007;DHT22;33771;48.180;11.400;2022-11-20T10:17:10;8.10;99.90
48007;DHT22;33771;48.180;11.400;2022-11-20T10:30:26;8.20;99.90
48007;DHT22;33771;48.180;11.400;2022-11-20T10:32:55;8.30;99.90
48007;DHT22;33771;48.180;11.400;2022-11-20T10:38:02;8.20;99.90
48007;DHT22;33771;48.180;11.400;2022-11-20T10:40:37;8.10;99.90
48007;DHT22;33771;48.180;11.400;2022-11-20T10:43:19;8.20;99.90
48007;DHT22;33771;48.180;11.400;2022-11-20T10:46:03;8.30;99.90
48007;DHT22;33771;48.180;11.400;2022-11-20T10:48:31;8.30;99.90
48007;DHT22;33771;48.180;11.400;2022-11-20T10:54:30;8.30;99.90
48007;DHT22;33771;48.180;11.400;2022-11-20T10:57:08;8.30;99.90
48007;DHT22;33771;48.180;11.400;2022-11-20T10:59:55;8.20;99.90
48007;DHT22;33771;48.180;11.400;2022-11-20T11:02:32;8.00;99.90
48007;DHT22;33771;48.180;11.400;2022-11-20T11:05:18;8.10;99.90
48007;DHT22;33771;48.180;11.400;2022-11-20T11:07:53;8.10;99.90
48007;DHT22;33771;48.180;11.400;2022-11-20T11:10:32;8.10;99.90
48007;DHT22;33771;48.180;11.400;2022-11-20T11:12:59;8.20;99.90
48007;DHT22;33771;48.180;11.400;2022-11-20T11:15:35;8.30;99.90
48007;DHT22;33771;48.180;11.400;2022-11-20T11:18:02;8.30;99.90
48007;DHT22;33771;48.180;11.400;2022-11-20T11:20:29;8.30;99.90
48007;DHT22;33771;48.180;11.400;2022-11-20T11:22:57;8.40;99.90
48007;DHT22;33771;48.180;11.400;2022-11-20T11:27:56;8.30;99.90
48007;DHT22;33771;48.180;11.400;2022-11-20T11:30:23;8.30;99.90
48007;DHT22;33771;48.180;11.400;2022-11-20T11:32:49;8.20;99.90
48007;DHT22;33771;48.180;11.400;2022-11-20T11:35:20;8.10;99.90
48007;DHT22;33771;48.180;11.400;2022-11-20T11:37:46;8.00;99.90
48007;DHT22;33771;48.180;11.400;2022-11-20T11:40:13;8.00;99.90
48007;DHT22;33771;48.180;11.400;2022-11-20T11:42:52;7.90;99.90
48007;DHT22;33771;48.180;11.400;2022-11-20T11:45:19;7.80;99.90
48007;DHT22;33771;48.180;11.400;2022-11-20T11:47:48;7.70;99.90
48007;DHT22;33771;48.180;11.400;2022-11-20T11:50:20;7.80;99.90
48007;DHT22;33771;48.180;11.400;2022-11-20T11:55:56;7.70;99.90
48007;DHT22;33771;48.180;11.400;2022-11-20T12:01:27;7.50;99.90
48007;DHT22;33771;48.180;11.400;2022-11-20T12:06:45;7.10;99.90
48007;DHT22;33771;48.180;11.400;2022-11-20T12:09:12;7.00;99.90
48007;DHT22;33771;48.180;11.400;2022-11-20T12:11:46;6.90;99.90
48007;DHT22;33771;48.180;11.400;2022-11-20T12:16:57;6.90;99.90
48007;DHT22;33771;48.180;11.400;2022-11-20T12:19:24;7.10;99.90
48007;DHT22;33771;48.180;11.400;2022-11-20T12:22:07;7.10;99.90
48007;DHT22;33771;48.180;11.400;2022-11-20T12:30:16;7.20;99.90
48007;DHT22;33771;48.180;11.400;2022-11-20T12:33:17;7.20;99.90
48007;DHT22;33771;48.180;11.400;2022-11-20T12:41:36;7.30;99.90
48007;DHT22;33771;48.180;11.400;2022-11-20T12:47:51;7.20;99.90
48007;DHT22;33771;48.180;11.400;2022-11-20T12:55:57;6.90;99.90
48007;DHT22;33771;48.180;11.400;2022-11-20T13:06:51;7.00;99.90
48007;DHT22;33771;48.180;11.400;2022-11-20T13:09:19;7.00;99.90
48007;DHT22;33771;48.180;11.400;2022-11-20T13:14:42;6.90;99.90
48007;DHT22;33771;48.180;11.400;2022-11-20T13:19:56;6.70;99.90
48007;DHT22;33771;48.180;11.400;2022-11-20T13:22:28;6.70;99.90
48007;DHT22;33771;48.180;11.400;2022-11-20T13:24:54;6.60;99.90
48007;DHT22;33771;48.180;11.400;2022-11-20T13:27:23;6.70;99.90
48007;DHT22;33771;48.180;11.400;2022-11-20T13:30:01;6.60;99.90
48007;DHT22;33771;48.180;11.400;2022-11-20T13:32:27;6.60;99.90
48007;DHT22;33771;48.180;11.400;2022-11-20T13:35:01;6.60;99.90
48007;DHT22;33771;48.180;11.400;2022-11-20T13:37:29;6.70;99.90
48007;DHT22;33771;48.180;11.400;2022-11-20T13:42:38;6.80;99.90
48007;DHT22;33771;48.180;11.400;2022-11-20T13:45:10;6.80;99.90
48007;DHT22;33771;48.180;11.400;2022-11-20T13:47:37;6.70;99.90
48007;DHT22;33771;48.180;11.400;2022-11-20T13:50:04;6.70;99.90
48007;DHT22;33771;48.180;11.400;2022-11-20T13:55:38;6.70;99.90
48007;DHT22;33771;48.180;11.400;2022-11-20T14:00:31;6.60;99.90
48007;DHT22;33771;48.180;11.400;2022-11-20T14:05:36;6.60;99.90
48007;DHT22;33771;48.180;11.400;2022-11-20T14:08:04;6.60;99.90
48007;DHT22;33771;48.180;11.400;2022-11-20T14:10:31;6.70;99.90
48007;DHT22;33771;48.180;11.400;2022-11-20T14:12:58;6.70;99.90
48007;DHT22;33771;48.180;11.400;2022-11-20T14:15:32;6.70;99.90
48007;DHT22;33771;48.180;11.400;2022-11-20T14:17:58;6.70;99.90
48007;DHT22;33771;48.180;11.400;2022-11-20T14:20:27;6.70;99.90
48007;DHT22;33771;48.180;11.400;2022-11-20T14:22:54;6.70;99.90
48007;DHT22;33771;48.180;11.400;2022-11-20T14:25:26;6.70;99.90
48007;DHT22;33771;48.180;11.400;2022-11-20T14:28:00;6.70;99.90
48007;DHT22;33771;48.180;11.400;2022-11-20T14:30:43;6.70;99.90
48007;DHT22;33771;48.180;11.400;2022-11-20T14:33:11;6.70;99.90
48007;DHT22;33771;48.180;11.400;2022-11-20T14:35:45;6.70;99.90
48007;DHT22;33771;48.180;11.400;2022-11-20T14:38:14;6.70;99.90
48007;DHT22;33771;48.180;11.400;2022-11-20T14:40:40;6.70;99.90
48007;DHT22;33771;48.180;11.400;2022-11-20T14:43:27;6.70;99.90
48007;DHT22;33771;48.180;11.400;2022-11-20T14:46:08;6.70;99.90
48007;DHT22;33771;48.180;11.400;2022-11-20T14:48:40;6.70;99.90
48007;DHT22;33771;48.180;11.400;2022-11-20T14:51:23;6.60;99.90
48007;DHT22;33771;48.180;11.400;2022-11-20T14:53:48;6.60;99.90
48007;DHT22;33771;48.180;11.400;2022-11-20T14:56:22;6.60;99.90
48007;DHT22;33771;48.180;11.400;2022-11-20T14:58:56;6.60;99.90
48007;DHT22;33771;48.180;11.400;2022-11-20T15:01:30;6.50;99.90
48007;DHT22;33771;48.180;11.400;2022-11-20T15:04:14;6.60;99.90
48007;DHT22;33771;48.180;11.400;2022-11-20T15:06:53;6.50;99.90
48007;DHT22;33771;48.180;11.400;2022-11-20T15:09:19;6.50;99.90
48007;DHT22;33771;48.180;11.400;2022-11-20T15:11:58;6.40;99.90
48007;DHT22;33771;48.180;11.400;2022-11-20T15:14:26;6.40;99.90
48007;DHT22;33771;48.180;11.400;2022-11-20T15:16:52;6.30;99.90
48007;DHT22;33771;48.180;11.400;2022-11-20T15:19:23;6.30;99.90
48007;DHT22;33771;48.180;11.400;2022-11-20T15:21:50;6.30;99.90
48007;DHT22;33771;48.180;11.400;2022-11-20T15:24:19;6.30;99.90
48007;DHT22;33771;48.180;11.400;2022-11-20T15:26:45;6.30;99.90
48007;DHT22;33771;48.180;11.400;2022-11-20T15:29:13;6.20;99.90
48007;DHT22;33771;48.180;11.400;2022-11-20T15:31:40;6.30;99.90
48007;DHT22;33771;48.180;11.400;2022-11-20T15:34:11;6.30;99.90
48007;DHT22;33771;48.180;11.400;2022-11-20T15:36:38;6.20;99.90
48007;DHT22;33771;48.180;11.400;2022-11-20T15:39:06;6.20;99.90
48007;DHT22;33771;48.180;11.400;2022-11-20T15:41:35;6.20;99.90
48007;DHT22;33771;48.180;11.400;2022-11-20T15:44:02;6.20;99.90
48007;DHT22;33771;48.180;11.400;2022-11-20T15:46:35;6.10;99.90
48007;DHT22;33771;48.180;11.400;2022-11-20T15:49:04;6.10;99.90
48007;DHT22;33771;48.180;11.400;2022-11-20T15:51:38;6.10;99.90
48007;DHT22;33771;48.180;11.400;2022-11-20T15:54:21;6.10;99.90
48007;DHT22;33771;48.180;11.400;2022-11-20T15:56:50;6.00;99.90
48007;DHT22;33771;48.180;11.400;2022-11-20T15:59:23;6.00;99.90
48007;DHT22;33771;48.180;11.400;2022-11-20T16:01:51;6.00;99.90
48007;DHT22;33771;48.180;11.400;2022-11-20T16:04:22;5.90;99.90
48007;DHT22;33771;48.180;11.400;2022-11-20T16:06:48;5.80;99.90
48007;DHT22;33771;48.180;11.400;2022-11-20T16:09:13;5.80;99.90
48007;DHT22;33771;48.180;11.400;2022-11-20T16:11:39;5.70;99.90
48007;DHT22;33771;48.180;11.400;2022-11-20T16:14:05;5.60;99.90
48007;DHT22;33771;48.180;11.400;2022-11-20T16:16:49;5.50;99.90
48007;DHT22;33771;48.180;11.400;2022-11-20T16:19:15;5.30;99.90
48007;DHT22;33771;48.180;11.400;2022-11-20T16:21:42;5.30;99.90
48007;DHT22;33771;48.180;11.400;2022-11-20T16:24:09;5.10;99.90
48007;DHT22;33771;48.180;11.400;2022-11-20T16:26:36;5.10;99.90
48007;DHT22;33771;48.180;11.400;2022-11-20T16:29:03;5.00;99.90
48007;DHT22;33771;48.180;11.400;2022-11-20T16:31:30;4.90;99.90
48007;DHT22;33771;48.180;11.400;2022-11-20T16:33:59;4.80;99.90
48007;DHT22;33771;48.180;11.400;2022-11-20T16:36:27;4.70;99.90
48007;DHT22;33771;48.180;11.400;2022-11-20T16:38:54;4.60;99.90
48007;DHT22;33771;48.180;11.400;2022-11-20T16:41:20;4.60;99.90
48007;DHT22;33771;48.180;11.400;2022-11-20T16:43:48;4.50;99.90
48007;DHT22;33771;48.180;11.400;2022-11-20T16:46:15;4.40;99.90
48007;DHT22;33771;48.180;11.400;2022-11-20T16:48:41;4.30;99.90
48007;DHT22;33771;48.180;11.400;2022-11-20T16:51:09;4.30;99.90
48007;DHT22;33771;48.180;11.400;2022-11-20T16:53:35;4.30;99.90
48007;DHT22;33771;48.180;11.400;2022-11-20T16:56:12;4.20;99.90
48007;DHT22;33771;48.180;11.400;2022-11-20T16:58:40;4.10;99.90
48007;DHT22;33771;48.180;11.400;2022-11-20T17:01:07;4.10;99.90
48007;DHT22;33771;48.180;11.400;2022-11-20T17:03:38;4.10;99.90
48007;DHT22;33771;48.180;11.400;2022-11-20T17:06:16;4.10;99.90
48007;DHT22;33771;48.180;11.400;2022-11-20T17:08:42;4.10;99.90